sensor_id;sensor_type;location;lat;lon;timestamp;P1;durP1;ratioP1;P2;durP2;ratioP2
34697;SDS011;61391;50.922;6.928;2023-10-08T00:01:07;0.40;;;0.40;;
34697;SDS011;61391;50.922;6.928;2023-10-08T00:06:59;0.88;;;0.82;;
34697;SDS011;61391;50.922;6.928;2023-10-08T00:09:24;1.45;;;0.70;;
34697;SDS011;61391;50.922;6.928;2023-10-08T00:11:50;0.52;;;0.50;;
34697;SDS011;61391;50.922;6.928;2023-10-08T00:14:19;0.68;;;0.47;;
34697;SDS011;61391;50.922;6.928;2023-10-08T00:16:46;1.08;;;0.43;;
34697;SDS011;61391;50.922;6.928;2023-10-08T00:19:15;0.85;;;0.85;;
34697;SDS011;61391;50.922;6.928;2023-10-08T00:21:42;0.30;;;0.30;;
34697;SDS011;61391;50.922;6.928;2023-10-08T00:24:10;9.40;;;0.70;;
34697;SDS011;61391;50.922;6.928;2023-10-08T00:29:06;1.02;;;0.93;;
34697;SDS011;61391;50.922;6.928;2023-10-08T00:31:46;1.33;;;0.75;;
34697;SDS011;61391;50.922;6.928;2023-10-08T00:34:14;5.05;;;1.15;;
34697;SDS011;61391;50.922;6.928;2023-10-08T00:36:43;4.90;;;1.80;;
34697;SDS011;61391;50.922;6.928;2023-10-08T00:39:11;0.90;;;0.50;;
34697;SDS011;61391;50.922;6.928;2023-10-08T00:45:03;0.50;;;0.50;;
34697;SDS011;61391;50.922;6.928;2023-10-08T00:47:30;0.45;;;0.25;;
34697;SDS011;61391;50.922;6.928;2023-10-08T00:49:59;0.40;;;0.40;;
34697;SDS011;61391;50.922;6.928;2023-10-08T00:52:31;1.02;;;0.68;;
34697;SDS011;61391;50.922;6.928;2023-10-08T00:55:10;1.85;;;0.60;;
34697;SDS011;61391;50.922;6.928;2023-10-08T00:57:55;0.30;;;0.30;;
34697;SDS011;61391;50.922;6.928;2023-10-08T01:00:23;0.73;;;0.57;;
34697;SDS011;61391;50.922;6.928;2023-10-08T01:02:57;1.25;;;0.60;;
34697;SDS011;61391;50.922;6.928;2023-10-08T01:05:26;0.65;;;0.65;;
34697;SDS011;61391;50.922;6.928;2023-10-08T01:08:13;0.73;;;0.73;;
34697;SDS011;61391;50.922;6.928;2023-10-08T01:10:48;0.28;;;0.28;;
34697;SDS011;61391;50.922;6.928;2023-10-08T01:13:22;0.60;;;0.22;;
34697;SDS011;61391;50.922;6.928;2023-10-08T01:15:51;0.43;;;0.35;;
34697;SDS011;61391;50.922;6.928;2023-10-08T01:18:17;0.50;;;0.50;;
34697;SDS011;61391;50.922;6.928;2023-10-08T01:21:00;0.40;;;0.35;;
34697;SDS011;61391;50.922;6.928;2023-10-08T01:23:44;0.55;;;0.52;;
34697;SDS011;61391;50.922;6.928;2023-10-08T01:26:11;0.65;;;0.57;;
34697;SDS011;61391;50.922;6.928;2023-10-08T01:28:37;0.57;;;0.57;;
34697;SDS011;61391;50.922;6.928;2023-10-08T01:31:03;0.70;;;0.70;;
34697;SDS011;61391;50.922;6.928;2023-10-08T01:33:29;0.85;;;0.50;;
34697;SDS011;61391;50.922;6.928;2023-10-08T01:35:57;0.82;;;0.60;;
34697;SDS011;61391;50.922;6.928;2023-10-08T01:38:28;0.98;;;0.60;;
34697;SDS011;61391;50.922;6.928;2023-10-08T01:40:54;1.92;;;0.35;;
34697;SDS011;61391;50.922;6.928;2023-10-08T01:43:21;0.65;;;0.60;;
34697;SDS011;61391;50.922;6.928;2023-10-08T01:45:47;0.75;;;0.50;;
34697;SDS011;61391;50.922;6.928;2023-10-08T01:48:17;0.70;;;0.50;;
34697;SDS011;61391;50.922;6.928;2023-10-08T01:50:58;0.65;;;0.65;;
34697;SDS011;61391;50.922;6.928;2023-10-08T01:53:26;0.93;;;0.52;;
34697;SDS011;61391;50.922;6.928;2023-10-08T01:55:53;4.30;;;0.75;;
34697;SDS011;61391;50.922;6.928;2023-10-08T01:58:21;1.17;;;0.73;;
34697;SDS011;61391;50.922;6.928;2023-10-08T02:00:47;0.30;;;0.30;;
34697;SDS011;61391;50.922;6.928;2023-10-08T02:03:14;1.13;;;0.60;;
34697;SDS011;61391;50.922;6.928;2023-10-08T02:05:41;0.70;;;0.60;;
34697;SDS011;61391;50.922;6.928;2023-10-08T02:08:08;0.40;;;0.40;;
34697;SDS011;61391;50.922;6.928;2023-10-08T02:10:35;0.30;;;0.30;;
34697;SDS011;61391;50.922;6.928;2023-10-08T02:13:03;0.93;;;0.45;;
34697;SDS011;61391;50.922;6.928;2023-10-08T02:15:31;0.40;;;0.40;;
34697;SDS011;61391;50.922;6.928;2023-10-08T02:17:57;0.50;;;0.50;;
34697;SDS011;61391;50.922;6.928;2023-10-08T02:20:23;0.55;;;0.55;;
34697;SDS011;61391;50.922;6.928;2023-10-08T02:22:49;0.40;;;0.40;;
34697;SDS011;61391;50.922;6.928;2023-10-08T02:25:15;0.68;;;0.68;;
34697;SDS011;61391;50.922;6.928;2023-10-08T02:27:41;0.55;;;0.43;;
34697;SDS011;61391;50.922;6.928;2023-10-08T02:30:07;0.40;;;0.40;;
34697;SDS011;61391;50.922;6.928;2023-10-08T02:32:35;0.80;;;0.63;;
34697;SDS011;61391;50.922;6.928;2023-10-08T02:38:23;1.00;;;0.50;;
34697;SDS011;61391;50.922;6.928;2023-10-08T02:40:49;0.45;;;0.30;;
34697;SDS011;61391;50.922;6.928;2023-10-08T02:43:15;3.25;;;1.38;;
34697;SDS011;61391;50.922;6.928;2023-10-08T02:45:42;0.30;;;0.30;;
34697;SDS011;61391;50.922;6.928;2023-10-08T02:48:12;0.57;;;0.57;;
34697;SDS011;61391;50.922;6.928;2023-10-08T02:50:38;1.45;;;0.75;;
34697;SDS011;61391;50.922;6.928;2023-10-08T02:53:05;3.53;;;0.57;;
34697;SDS011;61391;50.922;6.928;2023-10-08T02:55:35;0.47;;;0.47;;
34697;SDS011;61391;50.922;6.928;2023-10-08T02:58:01;0.50;;;0.50;;
34697;SDS011;61391;50.922;6.928;2023-10-08T03:00:30;0.57;;;0.55;;
34697;SDS011;61391;50.922;6.928;2023-10-08T03:02:59;1.25;;;0.40;;
34697;SDS011;61391;50.922;6.928;2023-10-08T03:05:27;0.43;;;0.43;;
34697;SDS011;61391;50.922;6.928;2023-10-08T03:07:56;1.58;;;0.32;;
34697;SDS011;61391;50.922;6.928;2023-10-08T03:10:23;0.73;;;0.73;;
34697;SDS011;61391;50.922;6.928;2023-10-08T03:12:57;2.05;;;0.80;;
34697;SDS011;61391;50.922;6.928;2023-10-08T03:17:56;0.47;;;0.47;;
34697;SDS011;61391;50.922;6.928;2023-10-08T03:20:33;0.88;;;0.52;;
34697;SDS011;61391;50.922;6.928;2023-10-08T03:23:06;0.93;;;0.68;;
34697;SDS011;61391;50.922;6.928;2023-10-08T03:25:38;2.40;;;0.93;;
34697;SDS011;61391;50.922;6.928;2023-10-08T03:28:07;1.00;;;0.88;;
34697;SDS011;61391;50.922;6.928;2023-10-08T03:30:38;2.13;;;0.67;;
34697;SDS011;61391;50.922;6.928;2023-10-08T03:36:04;4.45;;;0.77;;
34697;SDS011;61391;50.922;6.928;2023-10-08T03:38:45;1.15;;;0.43;;
34697;SDS011;61391;50.922;6.928;2023-10-08T03:41:18;0.43;;;0.32;;
34697;SDS011;61391;50.922;6.928;2023-10-08T03:43:52;1.40;;;0.90;;
34697;SDS011;61391;50.922;6.928;2023-10-08T03:46:21;1.15;;;0.65;;
34697;SDS011;61391;50.922;6.928;2023-10-08T03:48:49;1.00;;;0.30;;
34697;SDS011;61391;50.922;6.928;2023-10-08T03:51:18;0.57;;;0.57;;
34697;SDS011;61391;50.922;6.928;2023-10-08T03:53:49;0.43;;;0.43;;
34697;SDS011;61391;50.922;6.928;2023-10-08T03:56:33;0.30;;;0.30;;
34697;SDS011;61391;50.922;6.928;2023-10-08T03:59:01;1.27;;;0.28;;
34697;SDS011;61391;50.922;6.928;2023-10-08T04:01:45;0.38;;;0.38;;
34697;SDS011;61391;50.922;6.928;2023-10-08T04:04:14;1.08;;;0.85;;
34697;SDS011;61391;50.922;6.928;2023-10-08T04:06:40;0.35;;;0.30;;
34697;SDS011;61391;50.922;6.928;2023-10-08T04:09:17;1.00;;;0.60;;
34697;SDS011;61391;50.922;6.928;2023-10-08T04:11:42;0.35;;;0.22;;
34697;SDS011;61391;50.922;6.928;2023-10-08T04:14:19;0.60;;;0.60;;
34697;SDS011;61391;50.922;6.928;2023-10-08T04:16:45;0.55;;;0.55;;
34697;SDS011;61391;50.922;6.928;2023-10-08T04:19:12;0.55;;;0.43;;
34697;SDS011;61391;50.922;6.928;2023-10-08T04:21:38;0.50;;;0.50;;
34697;SDS011;61391;50.922;6.928;2023-10-08T04:24:08;0.35;;;0.28;;
34697;SDS011;61391;50.922;6.928;2023-10-08T04:26:34;0.38;;;0.32;;
34697;SDS011;61391;50.922;6.928;2023-10-08T04:29:00;0.95;;;0.88;;
34697;SDS011;61391;50.922;6.928;2023-10-08T04:31:30;1.67;;;0.90;;
34697;SDS011;61391;50.922;6.928;2023-10-08T04:34:08;0.35;;;0.35;;
34697;SDS011;61391;50.922;6.928;2023-10-08T04:36:40;0.43;;;0.40;;
34697;SDS011;61391;50.922;6.928;2023-10-08T04:39:07;1.13;;;0.57;;
34697;SDS011;61391;50.922;6.928;2023-10-08T04:41:42;0.57;;;0.57;;
34697;SDS011;61391;50.922;6.928;2023-10-08T04:47:30;0.50;;;0.50;;
34697;SDS011;61391;50.922;6.928;2023-10-08T04:50:00;0.40;;;0.40;;
34697;SDS011;61391;50.922;6.928;2023-10-08T04:52:29;0.22;;;0.22;;
34697;SDS011;61391;50.922;6.928;2023-10-08T04:54:55;0.40;;;0.40;;
34697;SDS011;61391;50.922;6.928;2023-10-08T04:57:21;0.52;;;0.50;;
34697;SDS011;61391;50.922;6.928;2023-10-08T04:59:47;1.13;;;0.68;;
34697;SDS011;61391;50.922;6.928;2023-10-08T05:02:15;0.43;;;0.43;;
34697;SDS011;61391;50.922;6.928;2023-10-08T05:05:14;0.98;;;0.85;;
34697;SDS011;61391;50.922;6.928;2023-10-08T05:07:42;1.73;;;0.60;;
34697;SDS011;61391;50.922;6.928;2023-10-08T05:10:11;0.80;;;0.60;;
34697;SDS011;61391;50.922;6.928;2023-10-08T05:12:57;0.47;;;0.47;;
34697;SDS011;61391;50.922;6.928;2023-10-08T05:15:40;0.57;;;0.55;;
34697;SDS011;61391;50.922;6.928;2023-10-08T05:18:27;0.22;;;0.22;;
34697;SDS011;61391;50.922;6.928;2023-10-08T05:21:13;0.95;;;0.52;;
34697;SDS011;61391;50.922;6.928;2023-10-08T05:23:53;1.38;;;1.20;;
34697;SDS011;61391;50.922;6.928;2023-10-08T05:26:33;0.82;;;0.75;;
34697;SDS011;61391;50.922;6.928;2023-10-08T05:29:07;1.95;;;1.10;;
34697;SDS011;61391;50.922;6.928;2023-10-08T05:31:52;1.10;;;0.95;;
34697;SDS011;61391;50.922;6.928;2023-10-08T05:34:36;0.73;;;0.63;;
34697;SDS011;61391;50.922;6.928;2023-10-08T05:37:07;0.68;;;0.68;;
34697;SDS011;61391;50.922;6.928;2023-10-08T05:43:03;0.82;;;0.73;;
34697;SDS011;61391;50.922;6.928;2023-10-08T05:45:47;1.00;;;0.82;;
34697;SDS011;61391;50.922;6.928;2023-10-08T05:48:33;1.02;;;0.88;;
34697;SDS011;61391;50.922;6.928;2023-10-08T05:51:10;0.75;;;0.70;;
34697;SDS011;61391;50.922;6.928;2023-10-08T05:53:48;0.68;;;0.63;;
34697;SDS011;61391;50.922;6.928;2023-10-08T05:56:20;0.60;;;0.45;;
34697;SDS011;61391;50.922;6.928;2023-10-08T05:59:07;0.68;;;0.68;;
34697;SDS011;61391;50.922;6.928;2023-10-08T06:01:49;0.93;;;0.70;;
34697;SDS011;61391;50.922;6.928;2023-10-08T06:04:23;0.70;;;0.55;;
34697;SDS011;61391;50.922;6.928;2023-10-08T06:07:08;0.30;;;0.30;;
34697;SDS011;61391;50.922;6.928;2023-10-08T06:09:48;0.73;;;0.65;;
34697;SDS011;61391;50.922;6.928;2023-10-08T06:12:27;0.45;;;0.40;;
34697;SDS011;61391;50.922;6.928;2023-10-08T06:14:55;0.20;;;0.20;;
34697;SDS011;61391;50.922;6.928;2023-10-08T06:17:34;0.40;;;0.40;;
34697;SDS011;61391;50.922;6.928;2023-10-08T06:20:21;0.60;;;0.50;;
34697;SDS011;61391;50.922;6.928;2023-10-08T06:26:12;1.00;;;0.63;;
34697;SDS011;61391;50.922;6.928;2023-10-08T06:28:38;1.08;;;0.45;;
34697;SDS011;61391;50.922;6.928;2023-10-08T06:31:04;1.65;;;0.57;;
34697;SDS011;61391;50.922;6.928;2023-10-08T06:36:03;1.00;;;0.77;;
34697;SDS011;61391;50.922;6.928;2023-10-08T06:38:39;1.15;;;1.00;;
34697;SDS011;61391;50.922;6.928;2023-10-08T06:41:06;0.52;;;0.52;;
34697;SDS011;61391;50.922;6.928;2023-10-08T06:47:00;0.68;;;0.68;;
34697;SDS011;61391;50.922;6.928;2023-10-08T06:49:25;0.68;;;0.68;;
34697;SDS011;61391;50.922;6.928;2023-10-08T06:51:51;1.08;;;0.93;;
34697;SDS011;61391;50.922;6.928;2023-10-08T06:54:18;4.20;;;0.63;;
34697;SDS011;61391;50.922;6.928;2023-10-08T06:56:44;3.83;;;0.82;;
34697;SDS011;61391;50.922;6.928;2023-10-08T06:59:20;1.38;;;0.80;;
34697;SDS011;61391;50.922;6.928;2023-10-08T07:01:50;0.38;;;0.38;;
34697;SDS011;61391;50.922;6.928;2023-10-08T07:04:23;0.70;;;0.70;;
34697;SDS011;61391;50.922;6.928;2023-10-08T07:06:49;1.55;;;1.02;;
34697;SDS011;61391;50.922;6.928;2023-10-08T07:09:17;0.82;;;0.82;;
34697;SDS011;61391;50.922;6.928;2023-10-08T07:11:57;0.52;;;0.45;;
34697;SDS011;61391;50.922;6.928;2023-10-08T07:14:23;1.70;;;0.95;;
34697;SDS011;61391;50.922;6.928;2023-10-08T07:16:52;0.57;;;0.57;;
34697;SDS011;61391;50.922;6.928;2023-10-08T07:22:45;0.82;;;0.82;;
34697;SDS011;61391;50.922;6.928;2023-10-08T07:25:13;0.63;;;0.63;;
34697;SDS011;61391;50.922;6.928;2023-10-08T07:30:26;0.70;;;0.70;;
34697;SDS011;61391;50.922;6.928;2023-10-08T07:32:54;0.30;;;0.30;;
34697;SDS011;61391;50.922;6.928;2023-10-08T07:35:20;2.45;;;1.30;;
34697;SDS011;61391;50.922;6.928;2023-10-08T07:37:46;0.90;;;0.68;;
34697;SDS011;61391;50.922;6.928;2023-10-08T07:40:15;1.10;;;0.63;;
34697;SDS011;61391;50.922;6.928;2023-10-08T07:42:41;0.95;;;0.40;;
34697;SDS011;61391;50.922;6.928;2023-10-08T07:45:07;0.68;;;0.57;;
34697;SDS011;61391;50.922;6.928;2023-10-08T07:50:45;0.68;;;0.40;;
34697;SDS011;61391;50.922;6.928;2023-10-08T07:53:11;1.58;;;0.80;;
34697;SDS011;61391;50.922;6.928;2023-10-08T07:55:47;0.65;;;0.55;;
34697;SDS011;61391;50.922;6.928;2023-10-08T07:58:14;0.40;;;0.40;;
34697;SDS011;61391;50.922;6.928;2023-10-08T08:00:40;1.38;;;0.68;;
34697;SDS011;61391;50.922;6.928;2023-10-08T08:06:38;8.43;;;1.15;;
34697;SDS011;61391;50.922;6.928;2023-10-08T08:09:03;1.00;;;0.85;;
34697;SDS011;61391;50.922;6.928;2023-10-08T08:11:44;1.70;;;1.40;;
34697;SDS011;61391;50.922;6.928;2023-10-08T08:14:14;1.02;;;0.43;;
34697;SDS011;61391;50.922;6.928;2023-10-08T08:16:42;0.80;;;0.63;;
34697;SDS011;61391;50.922;6.928;2023-10-08T08:19:13;1.10;;;0.53;;
34697;SDS011;61391;50.922;6.928;2023-10-08T08:21:41;1.48;;;0.88;;
34697;SDS011;61391;50.922;6.928;2023-10-08T08:24:10;4.93;;;0.85;;
34697;SDS011;61391;50.922;6.928;2023-10-08T08:26:53;1.15;;;0.80;;
34697;SDS011;61391;50.922;6.928;2023-10-08T08:29:27;1.33;;;0.95;;
34697;SDS011;61391;50.922;6.928;2023-10-08T08:34:53;0.38;;;0.30;;
34697;SDS011;61391;50.922;6.928;2023-10-08T08:37:19;1.33;;;0.90;;
34697;SDS011;61391;50.922;6.928;2023-10-08T08:39:50;0.35;;;0.35;;
34697;SDS011;61391;50.922;6.928;2023-10-08T08:42:16;3.60;;;0.70;;
34697;SDS011;61391;50.922;6.928;2023-10-08T08:44:46;1.10;;;0.82;;
34697;SDS011;61391;50.922;6.928;2023-10-08T08:50:34;1.40;;;0.52;;
34697;SDS011;61391;50.922;6.928;2023-10-08T08:53:03;0.82;;;0.68;;
34697;SDS011;61391;50.922;6.928;2023-10-08T08:55:29;4.25;;;0.73;;
34697;SDS011;61391;50.922;6.928;2023-10-08T08:57:57;0.38;;;0.35;;
34697;SDS011;61391;50.922;6.928;2023-10-08T09:00:25;1.23;;;1.08;;
34697;SDS011;61391;50.922;6.928;2023-10-08T09:02:54;1.27;;;1.10;;
34697;SDS011;61391;50.922;6.928;2023-10-08T09:05:20;1.10;;;0.80;;
34697;SDS011;61391;50.922;6.928;2023-10-08T09:10:53;1.20;;;0.65;;
34697;SDS011;61391;50.922;6.928;2023-10-08T09:13:26;1.27;;;0.85;;
34697;SDS011;61391;50.922;6.928;2023-10-08T09:16:14;1.27;;;0.52;;
34697;SDS011;61391;50.922;6.928;2023-10-08T09:18:44;0.82;;;0.63;;
34697;SDS011;61391;50.922;6.928;2023-10-08T09:24:34;0.77;;;0.70;;
34697;SDS011;61391;50.922;6.928;2023-10-08T09:30:28;1.05;;;0.70;;
34697;SDS011;61391;50.922;6.928;2023-10-08T09:32:54;0.50;;;0.50;;
34697;SDS011;61391;50.922;6.928;2023-10-08T09:38:45;1.25;;;0.73;;
34697;SDS011;61391;50.922;6.928;2023-10-08T09:41:13;0.82;;;0.80;;
34697;SDS011;61391;50.922;6.928;2023-10-08T09:43:40;0.57;;;0.57;;
34697;SDS011;61391;50.922;6.928;2023-10-08T09:46:18;0.82;;;0.70;;
34697;SDS011;61391;50.922;6.928;2023-10-08T09:52:10;1.38;;;0.80;;
34697;SDS011;61391;50.922;6.928;2023-10-08T09:54:48;0.80;;;0.80;;
34697;SDS011;61391;50.922;6.928;2023-10-08T09:57:29;3.13;;;1.58;;
34697;SDS011;61391;50.922;6.928;2023-10-08T10:03:24;1.58;;;0.80;;
34697;SDS011;61391;50.922;6.928;2023-10-08T10:08:47;2.10;;;1.38;;
34697;SDS011;61391;50.922;6.928;2023-10-08T10:11:14;1.23;;;0.98;;
34697;SDS011;61391;50.922;6.928;2023-10-08T10:13:51;1.40;;;1.27;;
34697;SDS011;61391;50.922;6.928;2023-10-08T10:19:43;0.80;;;0.80;;
34697;SDS011;61391;50.922;6.928;2023-10-08T10:22:11;0.75;;;0.75;;
34697;SDS011;61391;50.922;6.928;2023-10-08T10:24:52;3.05;;;1.73;;
34697;SDS011;61391;50.922;6.928;2023-10-08T10:27:18;2.67;;;1.33;;
34697;SDS011;61391;50.922;6.928;2023-10-08T10:29:44;1.25;;;1.02;;
34697;SDS011;61391;50.922;6.928;2023-10-08T10:32:12;2.22;;;1.00;;
34697;SDS011;61391;50.922;6.928;2023-10-08T10:34:42;0.82;;;0.82;;
34697;SDS011;61391;50.922;6.928;2023-10-08T10:37:09;1.08;;;0.98;;
34697;SDS011;61391;50.922;6.928;2023-10-08T10:39:50;1.25;;;0.50;;
34697;SDS011;61391;50.922;6.928;2023-10-08T10:42:18;1.75;;;1.35;;
34697;SDS011;61391;50.922;6.928;2023-10-08T10:48:08;1.77;;;0.73;;
34697;SDS011;61391;50.922;6.928;2023-10-08T10:50:59;1.57;;;0.97;;
34697;SDS011;61391;50.922;6.928;2023-10-08T10:53:34;1.23;;;0.75;;
34697;SDS011;61391;50.922;6.928;2023-10-08T10:59:32;1.02;;;0.93;;
34697;SDS011;61391;50.922;6.928;2023-10-08T11:02:04;1.38;;;1.20;;
34697;SDS011;61391;50.922;6.928;2023-10-08T11:04:34;2.25;;;1.55;;
34697;SDS011;61391;50.922;6.928;2023-10-08T11:07:19;1.42;;;1.10;;
34697;SDS011;61391;50.922;6.928;2023-10-08T11:09:47;1.38;;;1.25;;
34697;SDS011;61391;50.922;6.928;2023-10-08T11:12:13;1.67;;;1.45;;
34697;SDS011;61391;50.922;6.928;2023-10-08T11:14:45;1.90;;;0.98;;
34697;SDS011;61391;50.922;6.928;2023-10-08T11:20:34;2.20;;;1.50;;
34697;SDS011;61391;50.922;6.928;2023-10-08T11:23:35;7.17;;;1.67;;
34697;SDS011;61391;50.922;6.928;2023-10-08T11:26:04;2.42;;;1.38;;
34697;SDS011;61391;50.922;6.928;2023-10-08T11:28:31;5.55;;;1.45;;
34697;SDS011;61391;50.922;6.928;2023-10-08T11:34:31;1.25;;;1.00;;
34697;SDS011;61391;50.922;6.928;2023-10-08T11:37:03;1.40;;;1.25;;
34697;SDS011;61391;50.922;6.928;2023-10-08T11:39:39;1.60;;;1.50;;
34697;SDS011;61391;50.922;6.928;2023-10-08T11:42:10;1.60;;;1.13;;
34697;SDS011;61391;50.922;6.928;2023-10-08T11:48:29;1.98;;;1.70;;
34697;SDS011;61391;50.922;6.928;2023-10-08T11:54:24;1.67;;;1.50;;
34697;SDS011;61391;50.922;6.928;2023-10-08T11:57:18;4.10;;;1.60;;
34697;SDS011;61391;50.922;6.928;2023-10-08T12:03:08;2.50;;;1.63;;
34697;SDS011;61391;50.922;6.928;2023-10-08T12:05:38;1.42;;;1.33;;
34697;SDS011;61391;50.922;6.928;2023-10-08T12:08:18;3.08;;;1.85;;
34697;SDS011;61391;50.922;6.928;2023-10-08T12:10:47;3.15;;;1.67;;
34697;SDS011;61391;50.922;6.928;2023-10-08T12:13:14;3.40;;;2.08;;
34697;SDS011;61391;50.922;6.928;2023-10-08T12:15:41;1.50;;;1.25;;
34697;SDS011;61391;50.922;6.928;2023-10-08T12:18:09;1.50;;;1.40;;
34697;SDS011;61391;50.922;6.928;2023-10-08T12:20:51;2.67;;;1.88;;
34697;SDS011;61391;50.922;6.928;2023-10-08T12:23:19;1.85;;;1.33;;
34697;SDS011;61391;50.922;6.928;2023-10-08T12:25:53;7.20;;;2.72;;
34697;SDS011;61391;50.922;6.928;2023-10-08T12:31:42;1.92;;;1.75;;
34697;SDS011;61391;50.922;6.928;2023-10-08T12:34:12;2.03;;;1.33;;
34697;SDS011;61391;50.922;6.928;2023-10-08T12:36:38;2.08;;;1.50;;
34697;SDS011;61391;50.922;6.928;2023-10-08T12:39:04;2.78;;;1.48;;
34697;SDS011;61391;50.922;6.928;2023-10-08T12:41:36;4.15;;;1.73;;
34697;SDS011;61391;50.922;6.928;2023-10-08T12:44:04;1.50;;;1.40;;
34697;SDS011;61391;50.922;6.928;2023-10-08T12:46:33;2.35;;;1.80;;
34697;SDS011;61391;50.922;6.928;2023-10-08T12:48:59;0.98;;;0.98;;
34697;SDS011;61391;50.922;6.928;2023-10-08T12:51:26;1.52;;;1.42;;
34697;SDS011;61391;50.922;6.928;2023-10-08T12:53:56;2.72;;;1.65;;
34697;SDS011;61391;50.922;6.928;2023-10-08T12:59:54;1.55;;;1.42;;
34697;SDS011;61391;50.922;6.928;2023-10-08T13:02:22;2.72;;;1.67;;
34697;SDS011;61391;50.922;6.928;2023-10-08T13:04:53;2.95;;;1.70;;
34697;SDS011;61391;50.922;6.928;2023-10-08T13:07:20;5.53;;;2.55;;
34697;SDS011;61391;50.922;6.928;2023-10-08T13:09:47;2.25;;;2.05;;
34697;SDS011;61391;50.922;6.928;2023-10-08T13:12:13;5.03;;;1.92;;
34697;SDS011;61391;50.922;6.928;2023-10-08T13:14:40;1.60;;;1.23;;
34697;SDS011;61391;50.922;6.928;2023-10-08T13:17:09;2.85;;;2.10;;
34697;SDS011;61391;50.922;6.928;2023-10-08T13:19:38;2.42;;;2.22;;
34697;SDS011;61391;50.922;6.928;2023-10-08T13:22:04;1.63;;;1.10;;
34697;SDS011;61391;50.922;6.928;2023-10-08T13:24:33;2.03;;;1.83;;
34697;SDS011;61391;50.922;6.928;2023-10-08T13:27:00;1.92;;;1.83;;
34697;SDS011;61391;50.922;6.928;2023-10-08T13:29:26;12.65;;;1.85;;
34697;SDS011;61391;50.922;6.928;2023-10-08T13:31:58;1.40;;;1.30;;
34697;SDS011;61391;50.922;6.928;2023-10-08T13:34:23;1.42;;;1.33;;
34697;SDS011;61391;50.922;6.928;2023-10-08T13:36:51;2.65;;;1.65;;
34697;SDS011;61391;50.922;6.928;2023-10-08T13:42:38;2.58;;;1.75;;
34697;SDS011;61391;50.922;6.928;2023-10-08T13:45:07;3.72;;;1.33;;
34697;SDS011;61391;50.922;6.928;2023-10-08T13:47:37;3.20;;;1.60;;
34697;SDS011;61391;50.922;6.928;2023-10-08T13:50:05;2.05;;;1.70;;
34697;SDS011;61391;50.922;6.928;2023-10-08T13:52:38;2.00;;;1.80;;
34697;SDS011;61391;50.922;6.928;2023-10-08T13:55:05;4.10;;;2.03;;
34697;SDS011;61391;50.922;6.928;2023-10-08T13:57:34;4.55;;;1.83;;
34697;SDS011;61391;50.922;6.928;2023-10-08T14:03:21;1.92;;;1.75;;
34697;SDS011;61391;50.922;6.928;2023-10-08T14:05:47;1.00;;;1.00;;
34697;SDS011;61391;50.922;6.928;2023-10-08T14:08:16;1.80;;;1.65;;
34697;SDS011;61391;50.922;6.928;2023-10-08T14:14:05;1.67;;;1.20;;
34697;SDS011;61391;50.922;6.928;2023-10-08T14:16:36;1.40;;;1.08;;
34697;SDS011;61391;50.922;6.928;2023-10-08T14:19:06;1.80;;;1.55;;
34697;SDS011;61391;50.922;6.928;2023-10-08T14:21:33;1.50;;;1.38;;
34697;SDS011;61391;50.922;6.928;2023-10-08T14:24:08;2.65;;;2.05;;
34697;SDS011;61391;50.922;6.928;2023-10-08T14:26:40;1.70;;;1.55;;
34697;SDS011;61391;50.922;6.928;2023-10-08T14:29:07;4.15;;;1.60;;
34697;SDS011;61391;50.922;6.928;2023-10-08T14:34:58;2.83;;;2.35;;
34697;SDS011;61391;50.922;6.928;2023-10-08T14:37:42;1.60;;;1.48;;
34697;SDS011;61391;50.922;6.928;2023-10-08T14:40:26;2.78;;;2.33;;
34697;SDS011;61391;50.922;6.928;2023-10-08T14:46:33;1.88;;;1.27;;
34697;SDS011;61391;50.922;6.928;2023-10-08T14:49:01;2.03;;;1.77;;
34697;SDS011;61391;50.922;6.928;2023-10-08T14:51:27;2.20;;;1.85;;
34697;SDS011;61391;50.922;6.928;2023-10-08T14:57:16;2.90;;;1.83;;
34697;SDS011;61391;50.922;6.928;2023-10-08T14:59:43;3.50;;;1.63;;
34697;SDS011;61391;50.922;6.928;2023-10-08T15:02:09;2.22;;;1.83;;
34697;SDS011;61391;50.922;6.928;2023-10-08T15:04:36;2.38;;;1.23;;
34697;SDS011;61391;50.922;6.928;2023-10-08T15:07:07;6.30;;;1.35;;
34697;SDS011;61391;50.922;6.928;2023-10-08T15:12:57;1.80;;;1.65;;
34697;SDS011;61391;50.922;6.928;2023-10-08T15:15:23;2.00;;;1.70;;
34697;SDS011;61391;50.922;6.928;2023-10-08T15:17:50;1.20;;;1.10;;
34697;SDS011;61391;50.922;6.928;2023-10-08T15:20:16;1.63;;;1.52;;
34697;SDS011;61391;50.922;6.928;2023-10-08T15:22:44;1.70;;;1.35;;
34697;SDS011;61391;50.922;6.928;2023-10-08T15:25:12;1.05;;;0.95;;
34697;SDS011;61391;50.922;6.928;2023-10-08T15:27:40;1.42;;;1.33;;
34697;SDS011;61391;50.922;6.928;2023-10-08T15:30:09;1.45;;;1.35;;
34697;SDS011;61391;50.922;6.928;2023-10-08T15:32:40;1.45;;;1.17;;
34697;SDS011;61391;50.922;6.928;2023-10-08T15:35:09;1.58;;;1.23;;
34697;SDS011;61391;50.922;6.928;2023-10-08T15:37:39;1.52;;;1.42;;
34697;SDS011;61391;50.922;6.928;2023-10-08T15:45:55;1.50;;;1.40;;
34697;SDS011;61391;50.922;6.928;2023-10-08T15:48:21;1.45;;;1.35;;
34697;SDS011;61391;50.922;6.928;2023-10-08T15:54:09;1.60;;;1.47;;
34697;SDS011;61391;50.922;6.928;2023-10-08T15:59:56;4.10;;;2.03;;
34697;SDS011;61391;50.922;6.928;2023-10-08T16:05:44;1.92;;;1.60;;
34697;SDS011;61391;50.922;6.928;2023-10-08T16:11:38;2.67;;;2.03;;
34697;SDS011;61391;50.922;6.928;2023-10-08T16:14:05;0.85;;;0.77;;
34697;SDS011;61391;50.922;6.928;2023-10-08T16:16:30;7.80;;;2.25;;
34697;SDS011;61391;50.922;6.928;2023-10-08T16:18:56;2.95;;;2.22;;
34697;SDS011;61391;50.922;6.928;2023-10-08T16:21:26;3.13;;;2.03;;
34697;SDS011;61391;50.922;6.928;2023-10-08T16:23:55;5.97;;;1.90;;
34697;SDS011;61391;50.922;6.928;2023-10-08T16:26:23;2.78;;;2.08;;
34697;SDS011;61391;50.922;6.928;2023-10-08T16:28:50;7.18;;;1.42;;
34697;SDS011;61391;50.922;6.928;2023-10-08T16:31:16;3.88;;;1.90;;
34697;SDS011;61391;50.922;6.928;2023-10-08T16:33:43;2.33;;;2.13;;
34697;SDS011;61391;50.922;6.928;2023-10-08T16:39:32;9.60;;;4.80;;
34697;SDS011;61391;50.922;6.928;2023-10-08T16:45:19;5.85;;;4.63;;
34697;SDS011;61391;50.922;6.928;2023-10-08T16:47:46;6.10;;;4.97;;
34697;SDS011;61391;50.922;6.928;2023-10-08T16:53:36;2.63;;;2.42;;
34697;SDS011;61391;50.922;6.928;2023-10-08T16:56:05;9.45;;;6.18;;
34697;SDS011;61391;50.922;6.928;2023-10-08T17:01:55;6.75;;;5.28;;
34697;SDS011;61391;50.922;6.928;2023-10-08T17:07:43;5.93;;;3.28;;
34697;SDS011;61391;50.922;6.928;2023-10-08T17:10:10;7.70;;;2.72;;
34697;SDS011;61391;50.922;6.928;2023-10-08T17:15:58;6.10;;;3.88;;
34697;SDS011;61391;50.922;6.928;2023-10-08T17:21:52;6.68;;;4.15;;
34697;SDS011;61391;50.922;6.928;2023-10-08T17:24:32;2.60;;;2.22;;
34697;SDS011;61391;50.922;6.928;2023-10-08T17:26:59;2.17;;;1.95;;
34697;SDS011;61391;50.922;6.928;2023-10-08T17:29:27;2.28;;;2.08;;
34697;SDS011;61391;50.922;6.928;2023-10-08T17:31:53;2.35;;;2.15;;
34697;SDS011;61391;50.922;6.928;2023-10-08T17:34:20;5.20;;;3.00;;
34697;SDS011;61391;50.922;6.928;2023-10-08T17:40:10;2.07;;;1.53;;
34697;SDS011;61391;50.922;6.928;2023-10-08T17:45:59;11.25;;;3.40;;
34697;SDS011;61391;50.922;6.928;2023-10-08T17:48:30;3.60;;;2.25;;
34697;SDS011;61391;50.922;6.928;2023-10-08T17:51:01;4.00;;;2.83;;
34697;SDS011;61391;50.922;6.928;2023-10-08T17:53:28;5.20;;;4.00;;
34697;SDS011;61391;50.922;6.928;2023-10-08T17:55:55;2.70;;;2.50;;
34697;SDS011;61391;50.922;6.928;2023-10-08T18:01:43;3.97;;;2.60;;
34697;SDS011;61391;50.922;6.928;2023-10-08T18:04:15;2.72;;;2.50;;
34697;SDS011;61391;50.922;6.928;2023-10-08T18:10:13;5.00;;;3.35;;
34697;SDS011;61391;50.922;6.928;2023-10-08T18:16:04;2.70;;;2.23;;
34697;SDS011;61391;50.922;6.928;2023-10-08T18:21:55;3.28;;;2.28;;
34697;SDS011;61391;50.922;6.928;2023-10-08T18:54:28;3.88;;;2.85;;